KLM912 LIRF-LEMD
Flight info
| Callsign | KLM912 |
|---|---|
| Flight time | 2h 0m |
| Altitude | 33000 |
| Route | ESINO DCT ABIDU DCT GOKMI DCT SUPUX DCT KUPIM DCT SUXER DCT RIPAL DCT MORSS M603 CDP N733 PRADO |
| Aircraft | B738/M-SDE2E3FGHIRWXY/LB1 |
Departure
| Time | 2026-05-07 06:42 |
|---|---|
| Airport | Rome–Fiumicino Leonardo da Vinci International Airport (LIRF) |
Arrival
| Time | 2026-05-07 08:42 |
|---|---|
| Airport | Adolfo Suárez Madrid–Barajas Airport (LEMD) |
| Time | Latitude | Longitude | Altitude | Speed | Heading |
|---|---|---|---|---|---|
| 2026-05-07 06:16 | 41.79726 | 12.25643 | 16 ft | 0 kts | 295° |
| 2026-05-07 06:32 | 41.79718 | 12.25665 | 17 ft | 3 kts | 295° |
| 2026-05-07 06:33 | 41.79707 | 12.25689 | 16 ft | 4 kts | 327° |
| 2026-05-07 06:33 | 41.79685 | 12.25694 | 16 ft | 4 kts | 21° |
| 2026-05-07 06:33 | 41.79682 | 12.25693 | 16 ft | 4 kts | 25° |
| 2026-05-07 06:33 | 41.79706 | 12.25708 | 16 ft | 4 kts | 25° |
| 2026-05-07 06:34 | 41.79731 | 12.25724 | 15 ft | 4 kts | 25° |
| 2026-05-07 06:34 | 41.79755 | 12.25739 | 17 ft | 4 kts | 25° |
| 2026-05-07 06:34 | 41.79780 | 12.25754 | 16 ft | 4 kts | 25° |
| 2026-05-07 06:34 | 41.79793 | 12.25762 | 15 ft | 0 kts | 25° |
| 2026-05-07 06:36 | 41.79805 | 12.25770 | 15 ft | 4 kts | 26° |
| 2026-05-07 06:37 | 41.79845 | 12.25800 | 17 ft | 9 kts | 33° |
| 2026-05-07 06:37 | 41.79910 | 12.25849 | 16 ft | 13 kts | 25° |
| 2026-05-07 06:37 | 41.80001 | 12.25904 | 17 ft | 16 kts | 24° |
| 2026-05-07 06:37 | 41.80111 | 12.25970 | 16 ft | 18 kts | 25° |
| 2026-05-07 06:38 | 41.80226 | 12.26043 | 14 ft | 19 kts | 24° |
| 2026-05-07 06:38 | 41.80343 | 12.26124 | 14 ft | 19 kts | 26° |
| 2026-05-07 06:38 | 41.80467 | 12.26181 | 15 ft | 19 kts | 17° |
| 2026-05-07 06:38 | 41.80546 | 12.26304 | 15 ft | 17 kts | 69° |
| 2026-05-07 06:39 | 41.80586 | 12.26451 | 17 ft | 17 kts | 69° |
| 2026-05-07 06:39 | 41.80630 | 12.26611 | 14 ft | 19 kts | 70° |
| 2026-05-07 06:39 | 41.80677 | 12.26783 | 12 ft | 21 kts | 70° |
| 2026-05-07 06:39 | 41.80728 | 12.26970 | 9 ft | 15 kts | 70° |
| 2026-05-07 06:40 | 41.80803 | 12.27038 | 9 ft | 14 kts | 353° |
| 2026-05-07 06:40 | 41.80891 | 12.27000 | 10 ft | 12 kts | 340° |
| 2026-05-07 06:40 | 41.80951 | 12.26939 | 13 ft | 10 kts | 282° |
| 2026-05-07 06:40 | 41.80944 | 12.26884 | 11 ft | 4 kts | 252° |
| 2026-05-07 06:41 | 41.80904 | 12.26732 | 11 ft | 41 kts | 250° |
| 2026-05-07 06:41 | 41.80736 | 12.26127 | 20 ft | 97 kts | 249° |
| 2026-05-07 06:41 | 41.80438 | 12.25059 | 17 ft | 146 kts | 250° |
| 2026-05-07 06:41 | 41.80055 | 12.23661 | 296 ft | 164 kts | 251° |
| 2026-05-07 06:42 | 41.79679 | 12.22212 | 880 ft | 169 kts | 250° |
| 2026-05-07 06:42 | 41.79311 | 12.20607 | 1203 ft | 190 kts | 265° |
| 2026-05-07 06:42 | 41.79288 | 12.18810 | 1795 ft | 196 kts | 270° |
| 2026-05-07 06:42 | 41.79253 | 12.16914 | 2301 ft | 213 kts | 267° |
| 2026-05-07 06:43 | 41.78869 | 12.15021 | 3122 ft | 209 kts | 240° |
| 2026-05-07 06:43 | 41.77930 | 12.13488 | 3739 ft | 220 kts | 223° |
| 2026-05-07 06:43 | 41.76818 | 12.12120 | 4649 ft | 213 kts | 222° |
| 2026-05-07 06:43 | 41.75700 | 12.10779 | 5359 ft | 217 kts | 221° |
| 2026-05-07 06:44 | 41.74573 | 12.09418 | 6092 ft | 219 kts | 222° |
| 2026-05-07 06:44 | 41.73444 | 12.08029 | 6818 ft | 221 kts | 223° |
| 2026-05-07 06:44 | 41.72311 | 12.06619 | 7516 ft | 224 kts | 223° |
| 2026-05-07 06:44 | 41.71156 | 12.05254 | 8172 ft | 227 kts | 213° |
| 2026-05-07 06:45 | 41.69708 | 12.04453 | 8834 ft | 230 kts | 191° |
| 2026-05-07 06:45 | 41.68055 | 12.04331 | 9241 ft | 245 kts | 181° |
| 2026-05-07 06:45 | 41.66292 | 12.04342 | 9593 ft | 263 kts | 180° |
| 2026-05-07 06:45 | 41.64471 | 12.04367 | 10506 ft | 262 kts | 180° |
| 2026-05-07 06:46 | 41.62592 | 12.04152 | 10932 ft | 279 kts | 196° |
| 2026-05-07 06:46 | 41.60802 | 12.03036 | 11424 ft | 292 kts | 217° |
| 2026-05-07 06:46 | 41.59141 | 12.01350 | 11869 ft | 309 kts | 219° |
| 2026-05-07 06:46 | 41.57419 | 11.99509 | 12287 ft | 326 kts | 220° |
| 2026-05-07 06:47 | 41.55615 | 11.97552 | 12694 ft | 343 kts | 220° |
| 2026-05-07 06:47 | 41.53729 | 11.95530 | 13267 ft | 353 kts | 219° |
| 2026-05-07 06:47 | 41.51790 | 11.93482 | 13988 ft | 358 kts | 219° |
| 2026-05-07 06:47 | 41.49822 | 11.91419 | 14748 ft | 362 kts | 219° |
| 2026-05-07 06:48 | 41.47835 | 11.89334 | 15506 ft | 365 kts | 219° |
| 2026-05-07 06:48 | 41.45828 | 11.87221 | 16250 ft | 368 kts | 219° |
| 2026-05-07 06:48 | 41.43810 | 11.85092 | 16952 ft | 372 kts | 219° |
| 2026-05-07 06:48 | 41.41771 | 11.82943 | 17660 ft | 375 kts | 219° |
| 2026-05-07 06:49 | 41.39799 | 11.80646 | 18324 ft | 378 kts | 227° |
| 2026-05-07 06:49 | 41.38220 | 11.77836 | 18991 ft | 382 kts | 240° |
| 2026-05-07 06:49 | 41.37135 | 11.74598 | 19628 ft | 385 kts | 249° |
| 2026-05-07 06:49 | 41.36208 | 11.71235 | 20203 ft | 390 kts | 250° |
| 2026-05-07 06:50 | 41.35297 | 11.67820 | 20789 ft | 393 kts | 250° |
| 2026-05-07 06:50 | 41.34381 | 11.64371 | 21365 ft | 397 kts | 250° |
| 2026-05-07 06:50 | 41.33444 | 11.60901 | 21922 ft | 400 kts | 249° |
| 2026-05-07 06:50 | 41.32488 | 11.57408 | 22454 ft | 403 kts | 249° |
| 2026-05-07 06:51 | 41.31518 | 11.53881 | 22971 ft | 407 kts | 249° |
| 2026-05-07 06:51 | 41.30547 | 11.50341 | 23470 ft | 410 kts | 249° |
| 2026-05-07 06:51 | 41.29567 | 11.46758 | 23951 ft | 413 kts | 250° |
| 2026-05-07 06:51 | 41.28597 | 11.43207 | 24417 ft | 416 kts | 250° |
| 2026-05-07 06:52 | 41.27604 | 11.39584 | 24876 ft | 418 kts | 249° |
| 2026-05-07 06:52 | 41.26603 | 11.35942 | 25316 ft | 421 kts | 249° |
| 2026-05-07 06:52 | 41.25595 | 11.32283 | 25746 ft | 423 kts | 249° |
| 2026-05-07 06:52 | 41.24579 | 11.28604 | 26156 ft | 425 kts | 249° |
| 2026-05-07 06:53 | 41.23558 | 11.24909 | 26554 ft | 427 kts | 249° |
| 2026-05-07 06:53 | 41.22533 | 11.21197 | 26924 ft | 429 kts | 249° |
| 2026-05-07 06:53 | 41.21502 | 11.17470 | 27289 ft | 431 kts | 249° |
| 2026-05-07 06:53 | 41.20465 | 11.13729 | 27653 ft | 433 kts | 249° |
| 2026-05-07 06:54 | 41.19421 | 11.09974 | 27976 ft | 434 kts | 249° |
| 2026-05-07 06:54 | 41.18373 | 11.06204 | 28311 ft | 436 kts | 249° |
| 2026-05-07 06:54 | 41.17319 | 11.02423 | 28632 ft | 438 kts | 249° |
| 2026-05-07 06:54 | 41.16261 | 10.98629 | 28940 ft | 439 kts | 249° |
| 2026-05-07 06:55 | 41.15199 | 10.94825 | 29245 ft | 440 kts | 249° |
| 2026-05-07 06:55 | 41.14133 | 10.91016 | 29642 ft | 439 kts | 249° |
| 2026-05-07 06:55 | 41.13070 | 10.87226 | 30046 ft | 438 kts | 249° |
| 2026-05-07 06:55 | 41.12011 | 10.83450 | 30466 ft | 436 kts | 249° |
| 2026-05-07 06:56 | 41.10955 | 10.79692 | 30868 ft | 434 kts | 249° |
| 2026-05-07 06:56 | 41.09902 | 10.75952 | 31264 ft | 432 kts | 249° |
| 2026-05-07 06:56 | 41.08862 | 10.72263 | 31655 ft | 430 kts | 249° |
| 2026-05-07 06:56 | 41.07802 | 10.68511 | 32062 ft | 428 kts | 249° |
| 2026-05-07 06:57 | 41.06777 | 10.64883 | 32435 ft | 426 kts | 249° |
| 2026-05-07 06:57 | 41.05739 | 10.61216 | 32817 ft | 424 kts | 249° |
| 2026-05-07 06:57 | 41.04701 | 10.57558 | 33014 ft | 426 kts | 249° |
| 2026-05-07 06:57 | 41.03655 | 10.53872 | 33025 ft | 428 kts | 249° |
| 2026-05-07 06:58 | 41.01579 | 10.46576 | 33029 ft | 419 kts | 249° |
| 2026-05-07 06:58 | 40.99519 | 10.39362 | 33027 ft | 419 kts | 249° |
| 2026-05-07 06:59 | 40.97851 | 10.33329 | 33018 ft | 419 kts | 251° |
| 2026-05-07 06:59 | 40.96110 | 10.25970 | 33014 ft | 419 kts | 252° |
| 2026-05-07 07:00 | 40.94320 | 10.18645 | 33013 ft | 417 kts | 251° |
| 2026-05-07 07:00 | 40.92467 | 10.11369 | 33010 ft | 418 kts | 251° |
| 2026-05-07 07:01 | 40.90649 | 10.04071 | 33014 ft | 417 kts | 251° |
| 2026-05-07 07:01 | 40.89154 | 9.98095 | 33013 ft | 417 kts | 251° |
| 2026-05-07 07:02 | 40.87921 | 9.93203 | 33010 ft | 411 kts | 251° |
| 2026-05-07 07:02 | 40.86111 | 9.86028 | 33005 ft | 412 kts | 251° |
| 2026-05-07 07:03 | 40.84287 | 9.78817 | 33005 ft | 415 kts | 251° |
| 2026-05-07 07:03 | 40.82452 | 9.71589 | 33002 ft | 415 kts | 251° |
| 2026-05-07 07:04 | 40.80616 | 9.64375 | 33005 ft | 414 kts | 251° |
| 2026-05-07 07:04 | 40.78784 | 9.57191 | 33007 ft | 413 kts | 251° |
| 2026-05-07 07:05 | 40.76946 | 9.50008 | 33006 ft | 414 kts | 251° |
| 2026-05-07 07:05 | 40.75096 | 9.42806 | 33012 ft | 414 kts | 251° |
| 2026-05-07 07:06 | 40.73255 | 9.35660 | 33012 ft | 414 kts | 251° |
| 2026-05-07 07:06 | 40.71399 | 9.28481 | 33006 ft | 413 kts | 251° |
| 2026-05-07 07:07 | 40.69546 | 9.21322 | 33016 ft | 412 kts | 251° |
| 2026-05-07 07:07 | 40.67688 | 9.14164 | 33019 ft | 413 kts | 251° |
| 2026-05-07 07:08 | 40.65821 | 9.06995 | 33016 ft | 414 kts | 251° |
| 2026-05-07 07:08 | 40.63948 | 8.99839 | 33019 ft | 413 kts | 251° |
| 2026-05-07 07:09 | 40.62074 | 8.92688 | 33008 ft | 412 kts | 251° |
| 2026-05-07 07:09 | 40.60205 | 8.85569 | 33004 ft | 411 kts | 251° |
| 2026-05-07 07:10 | 40.58328 | 8.78450 | 33002 ft | 412 kts | 250° |
| 2026-05-07 07:10 | 40.56455 | 8.71368 | 33008 ft | 413 kts | 250° |
| 2026-05-07 07:11 | 40.54554 | 8.64200 | 33007 ft | 412 kts | 250° |
| 2026-05-07 07:11 | 40.52679 | 8.57151 | 33008 ft | 411 kts | 250° |
| 2026-05-07 07:12 | 40.50778 | 8.50022 | 33009 ft | 411 kts | 250° |
| 2026-05-07 07:12 | 40.48896 | 8.42985 | 33017 ft | 411 kts | 250° |
| 2026-05-07 07:13 | 40.46998 | 8.35905 | 33016 ft | 410 kts | 250° |
| 2026-05-07 07:13 | 40.45100 | 8.28847 | 33005 ft | 409 kts | 250° |
| 2026-05-07 07:14 | 40.43665 | 8.21627 | 33011 ft | 411 kts | 264° |
| 2026-05-07 07:14 | 40.43228 | 8.14126 | 33009 ft | 413 kts | 264° |
| 2026-05-07 07:15 | 40.42831 | 8.06610 | 33003 ft | 412 kts | 264° |
| 2026-05-07 07:15 | 40.42344 | 7.99130 | 33002 ft | 410 kts | 259° |
| 2026-05-07 07:16 | 40.41423 | 7.91745 | 33007 ft | 411 kts | 259° |
| 2026-05-07 07:16 | 40.40489 | 7.84345 | 33003 ft | 411 kts | 259° |
| 2026-05-07 07:17 | 40.39547 | 7.76950 | 33004 ft | 411 kts | 259° |
| 2026-05-07 07:17 | 40.38616 | 7.69618 | 33003 ft | 410 kts | 259° |
| 2026-05-07 07:18 | 40.37668 | 7.62244 | 33003 ft | 410 kts | 259° |
| 2026-05-07 07:18 | 40.36714 | 7.54850 | 33003 ft | 412 kts | 259° |
| 2026-05-07 07:19 | 40.35756 | 7.47448 | 33003 ft | 411 kts | 259° |
| 2026-05-07 07:19 | 40.34793 | 7.40061 | 33004 ft | 411 kts | 259° |
| 2026-05-07 07:20 | 40.33824 | 7.32676 | 33002 ft | 411 kts | 259° |
| 2026-05-07 07:20 | 40.32853 | 7.25282 | 33003 ft | 412 kts | 259° |
| 2026-05-07 07:21 | 40.31874 | 7.17876 | 33003 ft | 412 kts | 259° |
| 2026-05-07 07:21 | 40.30891 | 7.10481 | 33004 ft | 412 kts | 259° |
| 2026-05-07 07:22 | 40.29902 | 7.03071 | 33003 ft | 412 kts | 259° |
| 2026-05-07 07:22 | 40.28916 | 6.95725 | 33002 ft | 412 kts | 259° |
| 2026-05-07 07:23 | 40.27919 | 6.88331 | 33004 ft | 413 kts | 259° |
| 2026-05-07 07:23 | 40.26913 | 6.80916 | 33005 ft | 413 kts | 259° |
| 2026-05-07 07:24 | 40.25905 | 6.73513 | 33005 ft | 413 kts | 258° |
| 2026-05-07 07:24 | 40.24892 | 6.66117 | 33002 ft | 412 kts | 258° |
| 2026-05-07 07:25 | 40.23366 | 6.55044 | 33004 ft | 413 kts | 258° |
| 2026-05-07 07:26 | 40.22345 | 6.47681 | 33002 ft | 413 kts | 258° |
| 2026-05-07 07:26 | 40.21317 | 6.40296 | 33004 ft | 412 kts | 258° |
| 2026-05-07 07:27 | 40.20283 | 6.32904 | 33002 ft | 413 kts | 258° |
| 2026-05-07 07:27 | 40.19242 | 6.25514 | 33003 ft | 413 kts | 258° |
| 2026-05-07 07:28 | 40.18200 | 6.18131 | 33002 ft | 412 kts | 258° |
| 2026-05-07 07:28 | 40.17153 | 6.10761 | 33003 ft | 412 kts | 258° |
| 2026-05-07 07:29 | 40.16102 | 6.03390 | 33004 ft | 411 kts | 258° |
| 2026-05-07 07:29 | 40.15048 | 5.96038 | 33003 ft | 412 kts | 258° |
| 2026-05-07 07:30 | 40.13986 | 5.88677 | 33003 ft | 412 kts | 258° |
| 2026-05-07 07:30 | 40.12929 | 5.81307 | 33004 ft | 413 kts | 258° |
| 2026-05-07 07:31 | 40.11910 | 5.73980 | 33004 ft | 413 kts | 258° |
| 2026-05-07 07:31 | 40.10869 | 5.66605 | 33002 ft | 413 kts | 258° |
| 2026-05-07 07:32 | 40.09815 | 5.59229 | 33003 ft | 413 kts | 258° |
| 2026-05-07 07:32 | 40.08762 | 5.51847 | 33004 ft | 414 kts | 258° |
| 2026-05-07 07:33 | 40.07702 | 5.44455 | 33004 ft | 414 kts | 258° |
| 2026-05-07 07:33 | 40.06635 | 5.37066 | 33004 ft | 414 kts | 258° |
| 2026-05-07 07:34 | 40.05563 | 5.29668 | 33002 ft | 416 kts | 258° |
| 2026-05-07 07:34 | 40.04484 | 5.22250 | 33003 ft | 416 kts | 258° |
| 2026-05-07 07:35 | 40.03398 | 5.14832 | 33002 ft | 416 kts | 258° |
| 2026-05-07 07:35 | 40.02306 | 5.07403 | 33003 ft | 417 kts | 258° |
| 2026-05-07 07:36 | 40.01215 | 5.00014 | 33003 ft | 417 kts | 258° |
| 2026-05-07 07:36 | 40.00113 | 4.92579 | 33003 ft | 418 kts | 258° |
| 2026-05-07 07:37 | 39.99002 | 4.85130 | 33004 ft | 419 kts | 258° |
| 2026-05-07 07:37 | 39.97892 | 4.77720 | 33002 ft | 415 kts | 258° |
| 2026-05-07 07:38 | 39.96531 | 4.70413 | 33006 ft | 416 kts | 253° |
| 2026-05-07 07:38 | 39.94919 | 4.63167 | 33004 ft | 417 kts | 253° |
| 2026-05-07 07:39 | 39.93438 | 4.55839 | 33004 ft | 418 kts | 255° |
| 2026-05-07 07:39 | 39.91957 | 4.48514 | 33003 ft | 419 kts | 254° |
| 2026-05-07 07:40 | 39.90426 | 4.41194 | 33002 ft | 419 kts | 254° |
| 2026-05-07 07:40 | 39.88905 | 4.33857 | 33004 ft | 420 kts | 254° |
| 2026-05-07 07:41 | 39.87380 | 4.26508 | 33004 ft | 420 kts | 254° |
| 2026-05-07 07:41 | 39.85853 | 4.19206 | 33005 ft | 420 kts | 254° |
| 2026-05-07 07:42 | 39.84322 | 4.11860 | 33008 ft | 421 kts | 254° |
| 2026-05-07 07:42 | 39.82780 | 4.04505 | 33005 ft | 421 kts | 254° |
| 2026-05-07 07:43 | 39.81235 | 3.97162 | 33003 ft | 421 kts | 254° |
| 2026-05-07 07:43 | 39.79685 | 3.89822 | 33003 ft | 421 kts | 254° |
| 2026-05-07 07:44 | 39.78130 | 3.82482 | 33002 ft | 421 kts | 254° |
| 2026-05-07 07:44 | 39.76572 | 3.75148 | 33003 ft | 421 kts | 253° |
| 2026-05-07 07:45 | 39.75017 | 3.67859 | 33003 ft | 421 kts | 253° |
| 2026-05-07 07:45 | 39.73449 | 3.60536 | 33002 ft | 420 kts | 253° |
| 2026-05-07 07:46 | 39.71881 | 3.53226 | 32995 ft | 420 kts | 253° |
| 2026-05-07 07:46 | 39.70306 | 3.45927 | 32990 ft | 419 kts | 253° |
| 2026-05-07 07:47 | 39.69578 | 3.38426 | 32998 ft | 420 kts | 265° |
| 2026-05-07 07:47 | 39.69331 | 3.32113 | 32997 ft | 421 kts | 265° |
| 2026-05-07 07:48 | 39.69054 | 3.24517 | 32992 ft | 421 kts | 265° |
| 2026-05-07 07:48 | 39.68755 | 3.16932 | 32986 ft | 420 kts | 265° |
| 2026-05-07 07:49 | 39.68449 | 3.09358 | 32993 ft | 420 kts | 265° |
| 2026-05-07 07:49 | 39.68144 | 3.01778 | 32986 ft | 421 kts | 265° |
| 2026-05-07 07:50 | 39.67832 | 2.94196 | 32993 ft | 421 kts | 265° |
| 2026-05-07 07:50 | 39.67516 | 2.86656 | 32988 ft | 421 kts | 265° |
| 2026-05-07 07:51 | 39.67194 | 2.79065 | 32985 ft | 421 kts | 265° |
| 2026-05-07 07:51 | 39.66866 | 2.71470 | 32979 ft | 422 kts | 265° |
| 2026-05-07 07:52 | 39.66532 | 2.63868 | 32979 ft | 422 kts | 265° |
| 2026-05-07 07:52 | 39.66194 | 2.56257 | 32990 ft | 422 kts | 265° |
| 2026-05-07 07:53 | 39.65847 | 2.48644 | 32981 ft | 423 kts | 265° |
| 2026-05-07 07:53 | 39.65498 | 2.41018 | 32985 ft | 424 kts | 265° |
| 2026-05-07 07:54 | 39.65148 | 2.33386 | 32978 ft | 424 kts | 265° |
| 2026-05-07 07:54 | 39.64788 | 2.25756 | 32982 ft | 424 kts | 264° |
| 2026-05-07 07:55 | 39.64425 | 2.18112 | 32982 ft | 425 kts | 264° |
| 2026-05-07 07:55 | 39.64059 | 2.10498 | 32980 ft | 426 kts | 264° |
| 2026-05-07 07:56 | 39.63685 | 2.02836 | 32983 ft | 425 kts | 264° |
| 2026-05-07 07:56 | 39.63306 | 1.95193 | 32986 ft | 425 kts | 264° |
| 2026-05-07 07:57 | 39.62922 | 1.87543 | 32988 ft | 425 kts | 264° |
| 2026-05-07 07:57 | 39.62533 | 1.79888 | 32988 ft | 425 kts | 264° |
| 2026-05-07 07:58 | 39.62139 | 1.72229 | 32977 ft | 426 kts | 264° |
| 2026-05-07 07:58 | 39.61739 | 1.64563 | 32979 ft | 425 kts | 264° |
| 2026-05-07 07:59 | 39.61334 | 1.56914 | 32979 ft | 425 kts | 264° |
| 2026-05-07 07:59 | 39.60928 | 1.49324 | 32970 ft | 424 kts | 264° |
| 2026-05-07 08:00 | 39.60514 | 1.41698 | 32978 ft | 424 kts | 264° |
| 2026-05-07 08:00 | 39.60097 | 1.34073 | 32978 ft | 424 kts | 264° |
| 2026-05-07 08:01 | 39.59673 | 1.26449 | 32975 ft | 424 kts | 264° |
| 2026-05-07 08:01 | 39.59243 | 1.18829 | 32974 ft | 424 kts | 264° |
| 2026-05-07 08:02 | 39.58810 | 1.11208 | 32979 ft | 424 kts | 264° |
| 2026-05-07 08:02 | 39.58370 | 1.03586 | 32990 ft | 424 kts | 263° |
| 2026-05-07 08:03 | 39.57926 | 0.95971 | 32988 ft | 424 kts | 263° |
| 2026-05-07 08:03 | 39.57478 | 0.88353 | 32987 ft | 424 kts | 263° |
| 2026-05-07 08:04 | 39.57022 | 0.80728 | 32986 ft | 424 kts | 263° |
| 2026-05-07 08:04 | 39.56566 | 0.73153 | 32992 ft | 424 kts | 263° |
| 2026-05-07 08:05 | 39.56100 | 0.65531 | 32994 ft | 424 kts | 263° |
| 2026-05-07 08:05 | 39.55630 | 0.57896 | 32998 ft | 425 kts | 263° |
| 2026-05-07 08:06 | 39.55158 | 0.50264 | 32996 ft | 425 kts | 263° |
| 2026-05-07 08:06 | 39.54678 | 0.42634 | 32997 ft | 425 kts | 263° |
| 2026-05-07 08:07 | 39.54190 | 0.34986 | 33001 ft | 425 kts | 263° |
| 2026-05-07 08:07 | 39.53702 | 0.27359 | 33002 ft | 424 kts | 263° |
| 2026-05-07 08:08 | 39.53212 | 0.19777 | 33003 ft | 425 kts | 263° |
| 2026-05-07 08:08 | 39.52709 | 0.12141 | 33003 ft | 425 kts | 263° |
| 2026-05-07 08:09 | 39.52203 | 0.04508 | 33005 ft | 425 kts | 263° |
| 2026-05-07 08:09 | 39.51693 | -0.03124 | 33002 ft | 425 kts | 263° |
| 2026-05-07 08:10 | 39.51176 | -0.10762 | 33003 ft | 427 kts | 262° |
| 2026-05-07 08:10 | 39.50649 | -0.18461 | 33004 ft | 430 kts | 262° |
| 2026-05-07 08:11 | 39.50123 | -0.26129 | 33003 ft | 430 kts | 262° |
| 2026-05-07 08:11 | 39.49586 | -0.33831 | 33003 ft | 429 kts | 262° |
| 2026-05-07 08:12 | 39.49045 | -0.41515 | 33005 ft | 429 kts | 262° |
| 2026-05-07 08:12 | 39.49468 | -0.49236 | 33014 ft | 437 kts | 283° |
| 2026-05-07 08:12 | 39.50606 | -0.52908 | 33023 ft | 444 kts | 295° |
| 2026-05-07 08:13 | 39.52117 | -0.56411 | 33016 ft | 445 kts | 296° |
| 2026-05-07 08:13 | 39.55226 | -0.63354 | 33013 ft | 446 kts | 296° |
| 2026-05-07 08:14 | 39.58309 | -0.70305 | 33007 ft | 444 kts | 296° |
| 2026-05-07 08:14 | 39.61356 | -0.77274 | 33002 ft | 444 kts | 296° |
| 2026-05-07 08:15 | 39.64420 | -0.84242 | 33006 ft | 445 kts | 296° |
| 2026-05-07 08:15 | 39.67482 | -0.91220 | 33008 ft | 444 kts | 296° |
| 2026-05-07 08:16 | 39.70529 | -0.98202 | 33009 ft | 444 kts | 296° |
| 2026-05-07 08:16 | 39.73565 | -1.05173 | 33006 ft | 440 kts | 296° |
| 2026-05-07 08:17 | 39.76540 | -1.12023 | 33007 ft | 438 kts | 296° |
| 2026-05-07 08:17 | 39.79557 | -1.18930 | 33007 ft | 440 kts | 296° |
| 2026-05-07 08:18 | 39.82574 | -1.25849 | 33019 ft | 439 kts | 296° |
| 2026-05-07 08:18 | 39.85566 | -1.32780 | 33008 ft | 439 kts | 296° |
| 2026-05-07 08:19 | 39.88555 | -1.39706 | 33008 ft | 439 kts | 296° |
| 2026-05-07 08:19 | 39.91551 | -1.46658 | 33006 ft | 440 kts | 296° |
| 2026-05-07 08:19 | 39.93038 | -1.50107 | 32574 ft | 435 kts | 296° |
| 2026-05-07 08:20 | 39.94521 | -1.53554 | 31706 ft | 435 kts | 296° |
| 2026-05-07 08:20 | 39.95997 | -1.56996 | 30843 ft | 435 kts | 296° |
| 2026-05-07 08:20 | 39.97470 | -1.60435 | 29979 ft | 434 kts | 296° |
| 2026-05-07 08:20 | 39.98940 | -1.63868 | 29103 ft | 433 kts | 296° |
| 2026-05-07 08:21 | 40.00406 | -1.67293 | 28237 ft | 432 kts | 296° |
| 2026-05-07 08:21 | 40.01849 | -1.70668 | 27375 ft | 430 kts | 296° |
| 2026-05-07 08:21 | 40.03301 | -1.74069 | 26504 ft | 428 kts | 296° |
| 2026-05-07 08:21 | 40.04746 | -1.77457 | 25624 ft | 426 kts | 297° |
| 2026-05-07 08:22 | 40.06181 | -1.80828 | 24778 ft | 424 kts | 297° |
| 2026-05-07 08:22 | 40.07602 | -1.84167 | 24103 ft | 416 kts | 297° |
| 2026-05-07 08:22 | 40.08993 | -1.87438 | 23494 ft | 408 kts | 297° |
| 2026-05-07 08:22 | 40.10356 | -1.90648 | 22897 ft | 401 kts | 297° |
| 2026-05-07 08:23 | 40.11695 | -1.93805 | 22327 ft | 393 kts | 297° |
| 2026-05-07 08:23 | 40.13005 | -1.96901 | 21758 ft | 387 kts | 297° |
| 2026-05-07 08:23 | 40.14295 | -1.99951 | 21197 ft | 380 kts | 297° |
| 2026-05-07 08:23 | 40.15565 | -2.02954 | 20722 ft | 372 kts | 297° |
| 2026-05-07 08:24 | 40.16815 | -2.05907 | 20314 ft | 370 kts | 297° |
| 2026-05-07 08:24 | 40.18059 | -2.08845 | 19902 ft | 368 kts | 297° |
| 2026-05-07 08:24 | 40.19292 | -2.11762 | 19492 ft | 363 kts | 297° |
| 2026-05-07 08:24 | 40.20503 | -2.14630 | 19069 ft | 357 kts | 297° |
| 2026-05-07 08:25 | 40.21691 | -2.17449 | 18677 ft | 351 kts | 297° |
| 2026-05-07 08:25 | 40.22861 | -2.20230 | 18283 ft | 347 kts | 297° |
| 2026-05-07 08:25 | 40.24020 | -2.22985 | 17903 ft | 344 kts | 297° |
| 2026-05-07 08:25 | 40.25162 | -2.25726 | 17528 ft | 344 kts | 295° |
| 2026-05-07 08:26 | 40.26212 | -2.31758 | 16793 ft | 341 kts | 269° |
| 2026-05-07 08:26 | 40.26214 | -2.34861 | 16391 ft | 339 kts | 269° |
| 2026-05-07 08:26 | 40.26195 | -2.37940 | 16006 ft | 337 kts | 268° |
| 2026-05-07 08:27 | 40.26168 | -2.40990 | 15628 ft | 334 kts | 268° |
| 2026-05-07 08:27 | 40.26146 | -2.43978 | 15263 ft | 331 kts | 269° |
| 2026-05-07 08:27 | 40.26129 | -2.46981 | 14896 ft | 329 kts | 269° |
| 2026-05-07 08:27 | 40.26114 | -2.49974 | 14528 ft | 328 kts | 269° |
| 2026-05-07 08:28 | 40.26097 | -2.52942 | 14322 ft | 320 kts | 269° |
| 2026-05-07 08:28 | 40.26078 | -2.55804 | 14184 ft | 309 kts | 269° |
| 2026-05-07 08:28 | 40.26060 | -2.58561 | 14054 ft | 297 kts | 269° |
| 2026-05-07 08:28 | 40.26043 | -2.61225 | 13867 ft | 289 kts | 269° |
| 2026-05-07 08:29 | 40.26035 | -2.63830 | 13583 ft | 282 kts | 269° |
| 2026-05-07 08:29 | 40.26034 | -2.66357 | 13309 ft | 273 kts | 269° |
| 2026-05-07 08:29 | 40.26032 | -2.68802 | 13051 ft | 265 kts | 269° |
| 2026-05-07 08:29 | 40.26025 | -2.71217 | 12799 ft | 265 kts | 269° |
| 2026-05-07 08:30 | 40.26016 | -2.73611 | 12544 ft | 261 kts | 269° |
| 2026-05-07 08:30 | 40.26008 | -2.75976 | 12292 ft | 259 kts | 269° |
| 2026-05-07 08:30 | 40.25998 | -2.78333 | 12040 ft | 259 kts | 269° |
| 2026-05-07 08:30 | 40.25989 | -2.80685 | 11797 ft | 257 kts | 269° |
| 2026-05-07 08:31 | 40.25980 | -2.83023 | 11567 ft | 257 kts | 269° |
| 2026-05-07 08:31 | 40.25972 | -2.85368 | 11322 ft | 257 kts | 269° |
| 2026-05-07 08:31 | 40.25963 | -2.87707 | 11082 ft | 257 kts | 269° |
| 2026-05-07 08:31 | 40.25951 | -2.90046 | 10836 ft | 257 kts | 269° |
| 2026-05-07 08:32 | 40.25939 | -2.92382 | 10593 ft | 256 kts | 269° |
| 2026-05-07 08:32 | 40.25927 | -2.94714 | 10343 ft | 256 kts | 269° |
| 2026-05-07 08:32 | 40.25915 | -2.97041 | 10099 ft | 256 kts | 268° |
| 2026-05-07 08:32 | 40.25903 | -2.99368 | 9847 ft | 255 kts | 268° |
| 2026-05-07 08:33 | 40.25891 | -3.01693 | 9606 ft | 255 kts | 268° |
| 2026-05-07 08:33 | 40.25876 | -3.04014 | 9360 ft | 255 kts | 268° |
| 2026-05-07 08:33 | 40.25862 | -3.06333 | 9113 ft | 254 kts | 268° |
| 2026-05-07 08:33 | 40.25847 | -3.08651 | 8864 ft | 255 kts | 268° |
| 2026-05-07 08:34 | 40.25832 | -3.10964 | 8624 ft | 253 kts | 268° |
| 2026-05-07 08:34 | 40.25824 | -3.13268 | 8379 ft | 252 kts | 271° |
| 2026-05-07 08:34 | 40.26087 | -3.15537 | 8151 ft | 253 kts | 278° |
| 2026-05-07 08:34 | 40.26383 | -3.17809 | 7911 ft | 253 kts | 278° |
| 2026-05-07 08:35 | 40.26670 | -3.20045 | 7662 ft | 251 kts | 278° |
| 2026-05-07 08:35 | 40.26965 | -3.22298 | 7411 ft | 250 kts | 278° |
| 2026-05-07 08:35 | 40.27257 | -3.24509 | 7187 ft | 242 kts | 278° |
| 2026-05-07 08:35 | 40.27538 | -3.26633 | 6954 ft | 232 kts | 278° |
| 2026-05-07 08:36 | 40.27809 | -3.28673 | 6728 ft | 223 kts | 278° |
| 2026-05-07 08:36 | 40.28067 | -3.30629 | 6521 ft | 214 kts | 278° |
| 2026-05-07 08:36 | 40.28433 | -3.32496 | 6320 ft | 212 kts | 295° |
| 2026-05-07 08:36 | 40.28962 | -3.33563 | 6203 ft | 211 kts | 309° |
| 2026-05-07 08:37 | 40.29915 | -3.35048 | 5996 ft | 214 kts | 309° |
| 2026-05-07 08:37 | 40.30882 | -3.36535 | 5774 ft | 213 kts | 311° |
| 2026-05-07 08:37 | 40.31930 | -3.37873 | 5631 ft | 213 kts | 319° |
| 2026-05-07 08:37 | 40.33083 | -3.39108 | 5362 ft | 212 kts | 322° |
| 2026-05-07 08:38 | 40.34233 | -3.40281 | 5073 ft | 206 kts | 323° |
| 2026-05-07 08:38 | 40.35347 | -3.41409 | 4807 ft | 197 kts | 323° |
| 2026-05-07 08:38 | 40.36386 | -3.42461 | 4553 ft | 183 kts | 323° |
| 2026-05-07 08:38 | 40.37385 | -3.43475 | 4312 ft | 179 kts | 323° |
| 2026-05-07 08:39 | 40.38360 | -3.44464 | 4079 ft | 175 kts | 323° |
| 2026-05-07 08:39 | 40.39312 | -3.45430 | 3850 ft | 172 kts | 323° |
| 2026-05-07 08:39 | 40.40265 | -3.46398 | 3620 ft | 170 kts | 323° |
| 2026-05-07 08:39 | 40.41165 | -3.47314 | 3400 ft | 161 kts | 323° |
| 2026-05-07 08:40 | 40.42046 | -3.48208 | 3188 ft | 159 kts | 323° |
| 2026-05-07 08:40 | 40.42912 | -3.49086 | 2959 ft | 156 kts | 323° |
| 2026-05-07 08:40 | 40.43757 | -3.49943 | 2789 ft | 152 kts | 322° |
| 2026-05-07 08:40 | 40.44592 | -3.50795 | 2626 ft | 153 kts | 322° |
| 2026-05-07 08:41 | 40.45435 | -3.51670 | 2435 ft | 155 kts | 322° |
| 2026-05-07 08:41 | 40.46282 | -3.52532 | 2265 ft | 154 kts | 323° |
| 2026-05-07 08:41 | 40.47131 | -3.53392 | 2064 ft | 154 kts | 322° |
| 2026-05-07 08:41 | 40.47955 | -3.54227 | 1980 ft | 132 kts | 322° |
| 2026-05-07 08:42 | 40.48473 | -3.54751 | 1982 ft | 77 kts | 322° |
| 2026-05-07 08:42 | 40.48849 | -3.55134 | 1982 ft | 46 kts | 322° |
| 2026-05-07 08:42 | 40.49058 | -3.55345 | 1982 ft | 29 kts | 321° |
| 2026-05-07 08:42 | 40.49184 | -3.55533 | 1982 ft | 27 kts | 301° |
| 2026-05-07 08:43 | 40.49258 | -3.55747 | 1983 ft | 24 kts | 292° |
| 2026-05-07 08:43 | 40.49300 | -3.55947 | 1983 ft | 17 kts | 271° |
| 2026-05-07 08:43 | 40.49301 | -3.56029 | 1982 ft | 8 kts | 270° |
| 2026-05-07 08:43 | 40.49298 | -3.56102 | 1982 ft | 8 kts | 263° |
| 2026-05-07 08:44 | 40.49296 | -3.56173 | 1980 ft | 9 kts | 269° |
| 2026-05-07 08:44 | 40.49266 | -3.56241 | 1980 ft | 10 kts | 200° |
| 2026-05-07 08:44 | 40.49186 | -3.56249 | 1980 ft | 13 kts | 180° |
| 2026-05-07 08:44 | 40.49088 | -3.56247 | 1980 ft | 15 kts | 180° |
| 2026-05-07 08:45 | 40.48975 | -3.56247 | 1980 ft | 17 kts | 180° |
| 2026-05-07 08:45 | 40.48866 | -3.56282 | 1980 ft | 14 kts | 255° |
| 2026-05-07 08:45 | 40.48861 | -3.56424 | 1980 ft | 17 kts | 270° |
| 2026-05-07 08:45 | 40.48861 | -3.56584 | 1980 ft | 18 kts | 270° |
| 2026-05-07 08:46 | 40.48863 | -3.56759 | 1980 ft | 20 kts | 269° |
| 2026-05-07 08:46 | 40.48878 | -3.56877 | 1980 ft | 7 kts | 338° |
| 2026-05-07 08:46 | 40.48908 | -3.56854 | 1981 ft | 4 kts | 41° |
| 2026-05-07 08:46 | 40.48933 | -3.56841 | 1980 ft | 4 kts | 18° |
| 2026-05-07 08:47 | 40.48954 | -3.56829 | 1983 ft | 3 kts | 25° |
| 2026-05-07 08:47 | 40.48967 | -3.56821 | 1980 ft | 0 kts | 25° |
| 2026-05-07 08:48 | 40.48951 | -3.56855 | 1983 ft | 0 kts | 57° |